Birchington, United Kingdom
Current Conditions -  °F | °C
As of 6:20 PM on Thursday 29 Jan 2015 (Local Time) from EGMC Reporting Station
Few Clouds Few Clouds  
Wind Chill: 25°   Ceiling: Unl
Heat Index: 34°   Visibility: 6mi
Dew Point: 28°   Wind: 13mph
Humidity: 81%   Direction: 300°WNW
Pressure: 28.82"   Gusts: NA
Location:  51.37°N, 1.31°E
Report Text: EGMC 291820Z 30011KT 270V330 9999 FEW023 01/M02 Q0976
Loading
Personal Weather Stations






























Interactive Weather Map New forecast layout! Learn more

10-Day Weather Forecast

Advertisements
Track Severe Weather on mobile